createdAt,value
2022-07-29T00:01:45.451Z,47.29
2022-07-29T00:04:15.014Z,47.52
2022-07-29T00:06:43.790Z,47.75
2022-07-29T00:09:12.378Z,47.77
2022-07-29T00:11:42.650Z,47.63
2022-07-29T00:14:11.992Z,47.78
2022-07-29T00:16:41.140Z,48.15
2022-07-29T00:19:09.889Z,47.87
2022-07-29T00:21:39.456Z,48.11
2022-07-29T00:24:08.252Z,47.78
2022-07-29T00:26:37.034Z,47.89
2022-07-29T00:29:33.093Z,47.79
2022-07-29T00:31:55.858Z,48.29
2022-07-29T00:34:41.604Z,48.18
2022-07-29T00:37:10.207Z,48.61
2022-07-29T00:39:39.046Z,48.76
2022-07-29T00:42:08.896Z,49.23
2022-07-29T00:44:43.288Z,50.38
2022-07-29T00:47:12.941Z,51.10
2022-07-29T00:49:42.716Z,51.22
2022-07-29T00:52:12.933Z,51.53
2022-07-29T00:54:46.038Z,51.38
2022-07-29T00:57:14.842Z,51.46
2022-07-29T00:59:44.655Z,51.58
2022-07-29T01:02:13.363Z,52.27
2022-07-29T01:04:42.652Z,52.41
2022-07-29T01:07:12.025Z,52.41
2022-07-29T01:09:45.775Z,52.07
2022-07-29T01:12:17.397Z,52.19
2022-07-29T01:14:49.273Z,52.43
2022-07-29T01:17:23.554Z,52.12
2022-07-29T01:19:59.366Z,51.92
2022-07-29T01:22:35.940Z,52.19
2022-07-29T01:25:48.574Z,51.56
2022-07-29T01:29:07.523Z,51.58
2022-07-29T01:31:47.467Z,51.97
2022-07-29T01:34:37.186Z,52.25
2022-07-29T01:37:13.675Z,52.24
2022-07-29T01:39:45.781Z,51.53
2022-07-29T01:42:22.885Z,50.95
2022-07-29T01:45:02.615Z,50.49
2022-07-29T01:47:39.555Z,50.81
2022-07-29T01:50:12.574Z,50.57
2022-07-29T01:52:45.976Z,50.63
2022-07-29T01:55:18.558Z,50.98
2022-07-29T01:57:51.173Z,50.92
2022-07-29T02:00:21.841Z,51.45
2022-07-29T02:02:52.689Z,51.60
2022-07-29T02:05:24.178Z,51.67
2022-07-29T02:07:54.993Z,52.05
2022-07-29T02:10:27.832Z,52.43
2022-07-29T02:12:59.090Z,52.31
2022-07-29T02:15:31.160Z,52.33
2022-07-29T02:18:04.234Z,52.30
2022-07-29T02:20:33.255Z,52.39
2022-07-29T02:23:04.465Z,52.55
2022-07-29T02:25:38.262Z,52.42
2022-07-29T02:28:09.672Z,52.87
2022-07-29T02:30:44.675Z,53.17
2022-07-29T02:33:16.338Z,53.33
2022-07-29T02:35:49.652Z,53.63
2022-07-29T02:38:37.897Z,54.02
2022-07-29T02:41:12.483Z,53.90
2022-07-29T02:43:42.728Z,54.24
2022-07-29T02:46:28.464Z,54.28
2022-07-29T02:49:04.336Z,54.09
2022-07-29T02:51:43.687Z,54.00
2022-07-29T02:54:22.402Z,54.00
2022-07-29T02:56:56.426Z,53.97
2022-07-29T02:59:29.105Z,53.54
2022-07-29T03:02:01.643Z,53.64
2022-07-29T03:04:33.249Z,54.69
2022-07-29T03:07:02.865Z,55.37
2022-07-29T03:09:32.735Z,54.46
2022-07-29T03:12:02.198Z,54.53
2022-07-29T03:14:32.515Z,54.43
2022-07-29T03:17:03.060Z,54.05
2022-07-29T03:19:31.840Z,53.88
2022-07-29T03:22:01.038Z,53.76
2022-07-29T03:24:31.899Z,53.58
2022-07-29T03:27:00.933Z,53.99
2022-07-29T03:29:33.222Z,54.42
2022-07-29T03:32:08.234Z,55.08
2022-07-29T03:34:38.805Z,54.79
2022-07-29T03:37:08.611Z,55.14
2022-07-29T03:39:42.685Z,55.18
2022-07-29T03:42:16.012Z,54.87
2022-07-29T03:44:47.890Z,55.00
2022-07-29T03:47:21.426Z,54.91
2022-07-29T03:49:53.829Z,54.70
2022-07-29T03:52:23.675Z,54.52
2022-07-29T03:54:52.300Z,54.34
2022-07-29T03:57:22.571Z,54.20
2022-07-29T03:59:53.440Z,54.25
2022-07-29T04:02:30.196Z,54.06
2022-07-29T04:04:59.440Z,54.06
2022-07-29T04:07:28.080Z,54.57
2022-07-29T04:09:56.524Z,54.47
2022-07-29T04:12:25.162Z,54.13
2022-07-29T04:14:53.568Z,54.49
2022-07-29T04:17:23.372Z,54.18
2022-07-29T04:19:52.063Z,54.24
2022-07-29T04:22:20.508Z,53.85
2022-07-29T04:24:48.962Z,53.68
2022-07-29T04:27:17.673Z,53.49
2022-07-29T04:29:55.964Z,53.60
2022-07-29T04:32:28.278Z,54.03
2022-07-29T04:34:56.734Z,54.00
2022-07-29T04:37:25.116Z,54.16
2022-07-29T04:39:53.777Z,54.11
2022-07-29T04:42:27.521Z,54.34
2022-07-29T04:44:56.526Z,53.96
2022-07-29T04:47:24.932Z,53.79
2022-07-29T04:49:54.848Z,53.80
2022-07-29T04:52:23.607Z,53.28
2022-07-29T04:54:52.055Z,53.37
2022-07-29T04:57:20.471Z,52.96
2022-07-29T04:59:49.690Z,52.75
2022-07-29T05:02:18.169Z,52.37
2022-07-29T05:04:46.719Z,52.20
2022-07-29T05:07:16.985Z,53.29
2022-07-29T05:09:45.424Z,52.55
2022-07-29T05:12:14.005Z,52.23
2022-07-29T05:14:42.665Z,51.41
2022-07-29T05:17:11.161Z,51.18
2022-07-29T05:19:39.817Z,50.79
2022-07-29T05:22:08.927Z,50.06
2022-07-29T05:24:38.755Z,49.99
2022-07-29T05:27:07.314Z,50.25
2022-07-29T05:29:44.493Z,49.92
2022-07-29T05:32:14.341Z,49.54
2022-07-29T05:34:50.065Z,49.54
2022-07-29T05:37:20.689Z,49.00
2022-07-29T05:39:56.625Z,48.69
2022-07-29T05:42:25.656Z,48.53
2022-07-29T05:44:55.114Z,48.41
2022-07-29T05:47:23.970Z,48.35
2022-07-29T05:49:52.611Z,48.29
2022-07-29T05:52:21.741Z,48.50
2022-07-29T05:54:52.186Z,48.41
2022-07-29T05:57:21.926Z,48.51
2022-07-29T05:59:52.342Z,48.34
2022-07-29T06:02:20.912Z,48.38
2022-07-29T06:04:50.415Z,48.04
2022-07-29T06:07:19.159Z,47.76
2022-07-29T06:09:47.594Z,47.61
2022-07-29T06:12:17.395Z,47.68
2022-07-29T06:14:46.971Z,47.49
2022-07-29T06:17:18.465Z,47.43
2022-07-29T06:19:47.221Z,47.08
2022-07-29T06:22:17.916Z,47.29
2022-07-29T06:24:46.558Z,47.25
2022-07-29T06:27:15.281Z,47.27
2022-07-29T06:29:45.122Z,47.51
2022-07-29T06:32:15.305Z,47.38
2022-07-29T06:34:43.684Z,47.12
2022-07-29T06:37:18.653Z,46.91
2022-07-29T06:39:47.787Z,46.86
2022-07-29T06:42:16.259Z,46.52
2022-07-29T06:44:46.495Z,46.53
2022-07-29T06:47:14.934Z,46.13
2022-07-29T06:49:43.520Z,46.12
2022-07-29T06:52:12.238Z,45.89
2022-07-29T06:54:47.955Z,45.83
2022-07-29T06:57:16.644Z,45.72
2022-07-29T06:59:46.435Z,45.49
2022-07-29T07:02:14.957Z,45.33
2022-07-29T07:04:43.554Z,45.02
2022-07-29T07:07:11.954Z,45.16
2022-07-29T07:09:41.012Z,44.67
2022-07-29T07:12:10.177Z,44.04
2022-07-29T07:14:38.572Z,43.57
2022-07-29T07:17:08.918Z,43.49
2022-07-29T07:19:37.640Z,43.29
2022-07-29T07:22:06.078Z,43.15
2022-07-29T07:24:34.573Z,42.67
2022-07-29T07:27:03.248Z,42.90
2022-07-29T07:29:31.665Z,42.75
2022-07-29T07:32:01.069Z,41.77
2022-07-29T07:34:32.197Z,41.64
2022-07-29T07:37:00.681Z,41.43
2022-07-29T07:39:29.084Z,41.50
2022-07-29T07:41:57.723Z,40.99
2022-07-29T07:44:26.353Z,41.28
2022-07-29T07:46:55.069Z,41.06
2022-07-29T07:49:23.815Z,40.72
2022-07-29T07:51:53.702Z,40.01
2022-07-29T07:54:22.443Z,40.17
2022-07-29T07:56:53.109Z,39.68
2022-07-29T07:59:21.880Z,39.61
2022-07-29T08:01:56.383Z,39.44
2022-07-29T08:04:28.460Z,39.13
2022-07-29T08:06:59.826Z,38.84
2022-07-29T08:09:30.640Z,39.09
2022-07-29T08:12:00.162Z,39.33
2022-07-29T08:14:28.573Z,38.77
2022-07-29T08:16:57.255Z,39.40
2022-07-29T08:19:25.888Z,39.07
2022-07-29T08:21:54.910Z,39.13
2022-07-29T08:24:42.734Z,39.00
2022-07-29T08:27:33.457Z,39.67
2022-07-29T08:30:00.769Z,39.37
2022-07-29T08:32:52.444Z,39.41
2022-07-29T08:35:18.440Z,39.32
2022-07-29T08:37:46.965Z,39.91
2022-07-29T08:40:16.821Z,39.51
2022-07-29T08:42:45.488Z,39.43
2022-07-29T08:45:14.673Z,39.74
2022-07-29T08:47:43.275Z,39.15
2022-07-29T08:50:12.452Z,39.01
2022-07-29T08:52:42.715Z,38.79
2022-07-29T08:55:12.596Z,38.81
2022-07-29T08:57:51.109Z,38.82
2022-07-29T09:00:24.378Z,38.16
2022-07-29T09:02:59.683Z,38.44
2022-07-29T09:05:29.172Z,38.34
2022-07-29T09:07:58.387Z,37.94
2022-07-29T09:10:26.994Z,37.77
2022-07-29T09:12:58.180Z,37.68
2022-07-29T09:15:27.171Z,37.37
2022-07-29T09:17:56.376Z,37.45
2022-07-29T09:20:25.137Z,37.44
2022-07-29T09:22:54.504Z,36.91
2022-07-29T09:25:44.053Z,37.22
2022-07-29T09:28:15.783Z,36.58
2022-07-29T09:30:53.884Z,37.66
2022-07-29T09:33:23.322Z,36.74
2022-07-29T09:36:01.966Z,36.87
2022-07-29T09:38:31.198Z,36.47
2022-07-29T09:41:05.690Z,35.77
2022-07-29T09:43:36.852Z,36.62
2022-07-29T09:46:15.953Z,36.46
2022-07-29T09:48:46.977Z,35.77
2022-07-29T09:51:28.477Z,35.39
2022-07-29T09:54:26.724Z,36.02
2022-07-29T09:56:56.645Z,35.29
2022-07-29T09:59:27.644Z,35.11
2022-07-29T10:01:56.389Z,34.23
2022-07-29T10:04:25.161Z,34.07
2022-07-29T10:07:04.851Z,34.09
2022-07-29T10:09:34.392Z,33.96
2022-07-29T10:12:12.009Z,33.41
2022-07-29T10:14:42.507Z,33.13
2022-07-29T10:17:12.582Z,33.01
2022-07-29T10:19:42.958Z,32.45
2022-07-29T10:22:13.013Z,32.47
2022-07-29T10:24:42.168Z,33.00
2022-07-29T10:27:11.109Z,32.69
2022-07-29T10:29:41.140Z,33.10
2022-07-29T10:32:32.377Z,33.54
2022-07-29T10:35:20.761Z,33.66
2022-07-29T10:38:18.935Z,33.92
2022-07-29T10:41:19.312Z,33.25
2022-07-29T10:43:51.316Z,32.38
2022-07-29T10:46:22.888Z,32.46
2022-07-29T10:49:11.357Z,32.48
2022-07-29T10:52:06.771Z,33.08
2022-07-29T10:54:51.479Z,33.30
2022-07-29T10:57:53.824Z,32.75
2022-07-29T11:00:34.649Z,32.92
2022-07-29T11:03:10.508Z,32.27
2022-07-29T11:05:59.523Z,32.42
2022-07-29T11:08:29.083Z,33.38
2022-07-29T11:11:37.935Z,33.40
2022-07-29T11:17:07.034Z,33.42
2022-07-29T11:19:44.728Z,32.84
2022-07-29T11:22:34.573Z,32.85
2022-07-29T11:25:16.755Z,33.40
2022-07-29T11:27:46.680Z,33.59
2022-07-29T11:30:17.083Z,32.70
2022-07-29T11:32:48.642Z,33.01
2022-07-29T11:35:36.928Z,32.35
2022-07-29T11:38:29.277Z,31.62
2022-07-29T11:44:14.033Z,30.87
2022-07-29T11:46:48.327Z,30.72
2022-07-29T11:49:22.279Z,31.04
2022-07-29T11:52:03.909Z,31.25
2022-07-29T11:54:57.430Z,30.66
2022-07-29T11:57:22.818Z,30.99
2022-07-29T12:00:10.066Z,31.18
2022-07-29T12:02:43.272Z,30.68
2022-07-29T12:05:12.595Z,30.98
2022-07-29T12:07:47.174Z,30.96
2022-07-29T12:10:19.529Z,30.92
2022-07-29T12:12:53.762Z,30.74
2022-07-29T12:15:25.045Z,30.95
2022-07-29T12:18:18.417Z,30.94
2022-07-29T12:20:49.164Z,30.99
2022-07-29T12:23:19.277Z,30.56
2022-07-29T12:25:49.883Z,29.67
2022-07-29T12:28:26.926Z,29.27
2022-07-29T12:30:56.650Z,28.71
2022-07-29T12:33:27.544Z,27.99
2022-07-29T12:36:07.261Z,27.60
2022-07-29T12:38:38.278Z,27.58
2022-07-29T12:41:07.098Z,27.08
2022-07-29T12:43:35.683Z,26.42
2022-07-29T12:46:15.853Z,25.84
2022-07-29T12:48:45.984Z,25.45
2022-07-29T12:51:15.804Z,25.05
2022-07-29T12:54:05.344Z,24.25
2022-07-29T12:56:43.147Z,24.97
2022-07-29T12:59:17.333Z,24.90
2022-07-29T13:01:48.121Z,25.97
2022-07-29T13:04:26.947Z,25.31
2022-07-29T13:07:06.970Z,25.64
2022-07-29T13:09:41.729Z,25.84
2022-07-29T13:12:12.574Z,26.08
2022-07-29T13:14:42.724Z,26.02
2022-07-29T13:17:12.855Z,26.45
2022-07-29T13:19:43.328Z,26.34
2022-07-29T13:22:12.742Z,26.33
2022-07-29T13:24:51.334Z,26.10
2022-07-29T13:27:20.897Z,26.50
2022-07-29T13:29:52.329Z,27.02
2022-07-29T13:32:28.197Z,27.06
2022-07-29T13:34:57.709Z,27.53
2022-07-29T13:37:26.947Z,27.09
2022-07-29T13:39:57.000Z,27.13
2022-07-29T13:42:27.141Z,27.81
2022-07-29T13:44:55.594Z,28.46
2022-07-29T13:47:32.835Z,28.60
2022-07-29T13:50:02.522Z,28.20
2022-07-29T13:52:31.350Z,28.24
2022-07-29T13:55:01.181Z,28.37
2022-07-29T13:57:30.909Z,28.29
2022-07-29T13:59:59.529Z,28.28
2022-07-29T14:02:28.170Z,27.74
2022-07-29T14:04:57.314Z,28.21
2022-07-29T14:07:46.108Z,28.21
2022-07-29T14:10:20.047Z,28.06
2022-07-29T14:12:48.960Z,28.19
2022-07-29T14:15:18.344Z,28.31
2022-07-29T14:17:46.906Z,28.17
2022-07-29T14:20:16.582Z,28.37
2022-07-29T14:22:46.060Z,28.59
2022-07-29T14:25:15.645Z,28.04
2022-07-29T14:27:45.741Z,28.37
2022-07-29T14:30:15.485Z,28.17
2022-07-29T14:32:44.617Z,28.63
2022-07-29T14:35:13.503Z,28.61
2022-07-29T14:37:42.843Z,28.66
2022-07-29T14:40:12.597Z,30.19
2022-07-29T14:42:42.253Z,30.96
2022-07-29T14:45:12.792Z,31.67
2022-07-29T14:47:41.426Z,31.73
2022-07-29T14:50:10.689Z,31.49
2022-07-29T14:52:39.531Z,32.07
2022-07-29T14:55:19.563Z,32.66
2022-07-29T14:57:50.894Z,32.34
2022-07-29T15:00:21.832Z,32.12
2022-07-29T15:03:01.790Z,31.56
2022-07-29T15:05:32.213Z,31.41
2022-07-29T15:08:01.652Z,30.69
2022-07-29T15:10:30.602Z,30.42
2022-07-29T15:12:59.337Z,30.52
2022-07-29T15:15:30.086Z,30.94
2022-07-29T15:17:58.550Z,30.90
2022-07-29T15:20:28.163Z,30.90
2022-07-29T15:22:57.631Z,31.50
2022-07-29T15:25:28.259Z,31.78
2022-07-29T15:28:01.310Z,31.65
2022-07-29T15:30:34.225Z,31.38
2022-07-29T15:33:04.903Z,30.78
2022-07-29T15:35:40.528Z,30.71
2022-07-29T15:38:10.535Z,29.94
2022-07-29T15:40:41.242Z,29.96
2022-07-29T15:43:09.781Z,30.03
2022-07-29T15:45:40.844Z,29.48
2022-07-29T15:48:14.618Z,29.89
2022-07-29T15:50:47.095Z,29.23
2022-07-29T15:53:16.401Z,29.05
2022-07-29T15:55:46.750Z,29.46
2022-07-29T15:58:15.232Z,29.17
2022-07-29T16:00:45.434Z,28.92
2022-07-29T16:03:14.117Z,29.09
2022-07-29T16:05:43.002Z,29.26
2022-07-29T16:08:12.246Z,29.38
2022-07-29T16:10:41.164Z,30.00
2022-07-29T16:13:09.622Z,30.43
2022-07-29T16:15:38.256Z,31.25
2022-07-29T16:18:09.309Z,31.17
2022-07-29T16:20:38.299Z,31.60
2022-07-29T16:23:07.729Z,32.78
2022-07-29T16:25:58.528Z,33.02
2022-07-29T16:28:24.775Z,32.90
2022-07-29T16:30:53.164Z,32.33
2022-07-29T16:33:23.557Z,32.21
2022-07-29T16:35:53.360Z,31.88
2022-07-29T16:38:22.249Z,32.20
2022-07-29T16:40:50.941Z,31.75
2022-07-29T16:43:19.933Z,31.69
2022-07-29T16:45:48.713Z,31.68
2022-07-29T16:48:18.102Z,31.63
2022-07-29T16:50:49.277Z,31.92
2022-07-29T16:53:17.776Z,31.66
2022-07-29T16:55:46.207Z,31.63
2022-07-29T16:58:14.904Z,30.74
2022-07-29T17:00:43.449Z,30.68
2022-07-29T17:03:13.446Z,30.02
2022-07-29T17:05:50.653Z,29.50
2022-07-29T17:08:24.486Z,30.60
2022-07-29T17:10:53.148Z,30.32
2022-07-29T17:13:21.695Z,29.59
2022-07-29T17:15:50.122Z,29.37
2022-07-29T17:18:18.763Z,28.49
2022-07-29T17:20:47.159Z,28.10
2022-07-29T17:23:15.606Z,27.60
2022-07-29T17:25:45.624Z,27.48
2022-07-29T17:28:13.955Z,27.57
2022-07-29T17:30:42.721Z,27.59
2022-07-29T17:33:11.768Z,27.11
2022-07-29T17:35:57.796Z,26.92
2022-07-29T17:38:26.930Z,27.49
2022-07-29T17:40:57.185Z,27.32
2022-07-29T17:43:25.764Z,27.23
2022-07-29T17:45:57.926Z,27.49
2022-07-29T17:48:28.144Z,27.90
2022-07-29T17:50:57.573Z,28.42
2022-07-29T17:53:26.196Z,28.45
2022-07-29T17:55:58.845Z,28.66
2022-07-29T17:58:30.460Z,29.42
2022-07-29T18:00:59.045Z,29.86
2022-07-29T18:03:27.887Z,29.44
2022-07-29T18:05:57.119Z,30.15
2022-07-29T18:08:29.917Z,30.27
2022-07-29T18:11:29.253Z,30.97
2022-07-29T18:13:58.217Z,31.16
2022-07-29T18:16:47.142Z,31.51
2022-07-29T18:19:16.202Z,31.68
2022-07-29T18:21:53.960Z,31.87
2022-07-29T18:24:29.143Z,32.69
2022-07-29T18:27:07.832Z,32.75
2022-07-29T18:30:09.658Z,32.84
2022-07-29T18:38:01.759Z,33.82
2022-07-29T18:40:14.308Z,33.89
2022-07-29T18:42:44.230Z,34.29
2022-07-29T18:45:19.099Z,32.18
2022-07-29T18:47:49.432Z,32.07
2022-07-29T18:50:19.349Z,33.88
2022-07-29T18:52:47.844Z,34.01
2022-07-29T18:55:16.618Z,34.17
2022-07-29T18:57:54.558Z,34.56
2022-07-29T19:00:25.985Z,34.84
2022-07-29T19:02:55.025Z,34.79
2022-07-29T19:05:24.138Z,35.27
2022-07-29T19:07:54.822Z,35.62
2022-07-29T19:10:23.524Z,36.14
2022-07-29T19:12:54.382Z,36.22
2022-07-29T19:15:23.059Z,36.52
2022-07-29T19:17:51.495Z,36.63
2022-07-29T19:20:19.945Z,36.88
2022-07-29T19:22:48.677Z,36.85
2022-07-29T19:25:17.134Z,36.90
2022-07-29T19:27:45.609Z,37.01
2022-07-29T19:30:16.172Z,37.04
2022-07-29T19:32:44.677Z,36.99
2022-07-29T19:35:28.045Z,37.06
2022-07-29T19:37:58.338Z,37.31
2022-07-29T19:40:52.190Z,37.18
2022-07-29T19:43:52.136Z,37.43
2022-07-29T19:46:15.040Z,37.66
2022-07-29T19:48:45.966Z,37.71
2022-07-29T19:51:17.418Z,38.02
2022-07-29T19:53:49.136Z,37.97
2022-07-29T19:56:20.127Z,37.97
2022-07-29T19:58:49.372Z,38.22
2022-07-29T20:01:19.465Z,38.59
2022-07-29T20:03:47.911Z,38.83
2022-07-29T20:06:16.599Z,38.70
2022-07-29T20:08:45.520Z,39.20
2022-07-29T20:11:14.045Z,39.89
2022-07-29T20:13:42.964Z,40.14
2022-07-29T20:16:11.503Z,39.82
2022-07-29T20:18:41.416Z,39.90
2022-07-29T20:21:10.017Z,40.72
2022-07-29T20:23:38.524Z,40.33
2022-07-29T20:26:09.751Z,40.74
2022-07-29T20:28:40.305Z,41.08
2022-07-29T20:31:09.129Z,41.19
2022-07-29T20:33:37.866Z,41.13
2022-07-29T20:36:08.342Z,41.15
2022-07-29T20:38:36.964Z,40.49
2022-07-29T20:41:05.837Z,40.88
2022-07-29T20:43:36.082Z,40.64
2022-07-29T20:46:07.856Z,40.92
2022-07-29T20:48:36.582Z,41.07
2022-07-29T20:51:05.038Z,40.80
2022-07-29T20:53:35.262Z,40.99
2022-07-29T20:56:03.863Z,41.00
2022-07-29T20:58:32.708Z,41.41
2022-07-29T21:01:01.327Z,41.65
2022-07-29T21:03:30.318Z,41.14
2022-07-29T21:05:58.711Z,41.23
2022-07-29T21:08:27.700Z,41.04
2022-07-29T21:10:57.858Z,41.71
2022-07-29T21:13:26.550Z,42.04
2022-07-29T21:15:59.057Z,43.03
2022-07-29T21:18:30.507Z,42.82
2022-07-29T21:21:02.138Z,42.67
2022-07-29T21:23:31.207Z,42.02
2022-07-29T21:26:01.050Z,42.60
2022-07-29T21:28:30.447Z,42.08
2022-07-29T21:31:00.286Z,42.41
2022-07-29T21:33:30.559Z,42.66
2022-07-29T21:36:20.140Z,42.23
2022-07-29T21:38:47.808Z,42.76
2022-07-29T21:41:17.577Z,42.55
2022-07-29T21:43:47.303Z,42.91
2022-07-29T21:46:18.104Z,42.97
2022-07-29T21:48:46.647Z,43.77
2022-07-29T21:51:15.062Z,44.38
2022-07-29T21:53:43.831Z,44.23
2022-07-29T21:56:15.018Z,44.09
2022-07-29T21:58:45.061Z,44.33
2022-07-29T22:01:13.719Z,44.08
2022-07-29T22:03:42.363Z,43.67
2022-07-29T22:06:16.640Z,43.94
2022-07-29T22:08:47.988Z,44.36
2022-07-29T22:11:16.651Z,44.58
2022-07-29T22:13:46.543Z,45.44
2022-07-29T22:16:15.284Z,45.06
2022-07-29T22:18:46.847Z,45.36
2022-07-29T22:21:15.911Z,45.65
2022-07-29T22:23:44.602Z,45.69
2022-07-29T22:26:13.042Z,45.53
2022-07-29T22:28:41.757Z,45.90
2022-07-29T22:31:12.268Z,45.24
2022-07-29T22:33:40.764Z,45.02
2022-07-29T22:36:09.471Z,44.79
2022-07-29T22:38:37.897Z,44.81
2022-07-29T22:41:06.336Z,45.02
2022-07-29T22:43:35.203Z,45.24
2022-07-29T22:46:03.735Z,45.23
2022-07-29T22:48:33.605Z,44.68
2022-07-29T22:51:02.295Z,45.11
2022-07-29T22:53:30.675Z,45.63
2022-07-29T22:55:59.147Z,47.02
2022-07-29T22:58:27.836Z,46.87
2022-07-29T23:00:56.219Z,46.47
2022-07-29T23:03:24.705Z,45.88
2022-07-29T23:05:54.741Z,45.70
2022-07-29T23:08:23.192Z,45.72
2022-07-29T23:10:51.653Z,45.59
2022-07-29T23:13:20.652Z,45.98
2022-07-29T23:15:49.249Z,46.51
2022-07-29T23:18:17.712Z,46.96
2022-07-29T23:20:46.375Z,46.51
2022-07-29T23:23:16.283Z,46.25
2022-07-29T23:25:44.737Z,46.12
2022-07-29T23:28:14.326Z,46.17
2022-07-29T23:30:43.091Z,46.22
2022-07-29T23:33:11.491Z,45.73
2022-07-29T23:35:40.166Z,45.86
2022-07-29T23:38:08.609Z,45.78
2022-07-29T23:40:38.523Z,45.71
2022-07-29T23:43:08.930Z,45.89
2022-07-29T23:45:42.818Z,46.24
2022-07-29T23:48:14.600Z,46.30
2022-07-29T23:50:43.289Z,47.02
2022-07-29T23:53:12.135Z,46.94
2022-07-29T23:55:42.188Z,47.45
2022-07-29T23:58:10.606Z,47.37
